createdAt,value
2016-05-30T00:00:27.966Z,0
2016-05-30T00:01:27.781Z,0
2016-05-30T00:02:27.783Z,0
2016-05-30T00:03:27.911Z,0
2016-05-30T00:04:27.758Z,0
2016-05-30T00:05:27.730Z,0
2016-05-30T00:06:28.576Z,0
2016-05-30T00:07:28.079Z,0
2016-05-30T00:08:27.831Z,0
2016-05-30T00:09:27.802Z,0
2016-05-30T00:10:27.774Z,0
2016-05-30T00:11:27.465Z,0
2016-05-30T00:12:27.763Z,0
2016-05-30T00:13:27.735Z,0
2016-05-30T00:14:27.723Z,0
2016-05-30T00:15:27.521Z,0
2016-05-30T00:16:27.681Z,0
2016-05-30T00:17:27.512Z,0
2016-05-30T00:18:27.639Z,0
2016-05-30T00:19:27.486Z,0
2016-05-30T00:20:27.457Z,0
2016-05-30T00:21:27.600Z,0
2016-05-30T00:22:27.494Z,0
2016-05-30T00:23:27.559Z,0
2016-05-30T00:24:27.405Z,0
2016-05-30T00:25:27.377Z,0
2016-05-30T00:26:27.519Z,0
2016-05-30T00:27:27.491Z,0
2016-05-30T00:28:27.495Z,0
2016-05-30T00:29:27.481Z,0
2016-05-30T00:30:27.453Z,0
2016-05-30T00:31:27.439Z,0
2016-05-30T00:32:27.411Z,0
2016-05-30T00:33:27.382Z,0
2016-05-30T00:34:27.369Z,0
2016-05-30T00:35:27.357Z,0
2016-05-30T00:36:27.500Z,0
2016-05-30T00:37:28.144Z,0
2016-05-30T00:38:27.302Z,0
2016-05-30T00:39:27.289Z,0
2016-05-30T00:40:27.277Z,0
2016-05-30T00:41:27.264Z,0
2016-05-30T00:42:27.235Z,0
2016-05-30T00:43:27.066Z,0
2016-05-30T00:44:26.896Z,0
2016-05-30T00:45:27.196Z,0
2016-05-30T00:46:27.168Z,0
2016-05-30T00:47:27.171Z,0
2016-05-30T00:48:26.985Z,0
2016-05-30T00:49:26.801Z,0
2016-05-30T00:50:27.132Z,0
2016-05-30T00:51:28.962Z,0
2016-05-30T00:52:26.950Z,0
2016-05-30T00:53:27.045Z,0
2016-05-30T00:54:27.033Z,0
2016-05-30T00:55:27.020Z,0
2016-05-30T00:56:27.007Z,0
2016-05-30T00:57:26.978Z,0
2016-05-30T00:58:26.809Z,0
2016-05-30T00:59:26.640Z,0
2016-05-30T01:00:26.939Z,0
2016-05-30T01:01:26.927Z,0
2016-05-30T01:02:26.897Z,0
2016-05-30T01:03:26.885Z,0
2016-05-30T01:04:26.872Z,0
2016-05-30T01:05:26.860Z,0
2016-05-30T01:06:28.408Z,0
2016-05-30T01:07:26.380Z,0
2016-05-30T01:08:26.805Z,0
2016-05-30T01:09:26.776Z,0
2016-05-30T01:10:26.763Z,0
2016-05-30T01:11:26.765Z,0
2016-05-30T01:12:26.721Z,0
2016-05-30T01:13:26.396Z,0
2016-05-30T01:14:26.555Z,0
2016-05-30T01:15:26.511Z,0
2016-05-30T01:16:26.686Z,0
2016-05-30T01:17:26.501Z,0
2016-05-30T01:18:26.613Z,0
2016-05-30T01:19:26.600Z,0
2016-05-30T01:20:26.587Z,0
2016-05-30T01:21:26.965Z,0
2016-05-30T01:22:26.593Z,0
2016-05-30T01:23:26.533Z,0
2016-05-30T01:24:26.520Z,0
2016-05-30T01:25:26.507Z,0
2016-05-30T01:26:26.338Z,0
2016-05-30T01:27:26.169Z,0
2016-05-30T01:28:26.468Z,0
2016-05-30T01:29:26.439Z,0
2016-05-30T01:30:26.411Z,0
2016-05-30T01:31:26.414Z,0
2016-05-30T01:32:26.385Z,0
2016-05-30T01:33:26.216Z,0
2016-05-30T01:34:26.358Z,0
2016-05-30T01:35:26.331Z,0
2016-05-30T01:36:26.443Z,0
2016-05-30T01:37:26.664Z,0
2016-05-30T01:38:26.276Z,0
2016-05-30T01:39:26.107Z,0
2016-05-30T01:40:26.250Z,0
2016-05-30T01:41:26.238Z,0
2016-05-30T01:42:25.896Z,0
2016-05-30T01:43:26.055Z,0
2016-05-30T01:44:26.027Z,0
2016-05-30T01:45:26.154Z,0
2016-05-30T01:46:25.985Z,0
2016-05-30T01:47:25.972Z,0
2016-05-30T01:48:25.787Z,0
2016-05-30T01:49:25.962Z,0
2016-05-30T01:50:26.059Z,0
2016-05-30T01:51:27.311Z,0
2016-05-30T01:52:26.251Z,0
2016-05-30T01:53:25.879Z,0
2016-05-30T01:54:26.006Z,0
2016-05-30T01:55:25.994Z,0
2016-05-30T01:56:25.980Z,0
2016-05-30T01:57:25.983Z,0
2016-05-30T01:58:25.923Z,0
2016-05-30T01:59:25.926Z,0
2016-05-30T02:00:25.897Z,0
2016-05-30T02:01:25.901Z,0
2016-05-30T02:02:25.888Z,0
2016-05-30T02:03:25.858Z,0
2016-05-30T02:04:25.846Z,0
2016-05-30T02:05:25.817Z,0
2016-05-30T02:06:25.883Z,0
2016-05-30T02:07:25.839Z,0
2016-05-30T02:08:25.780Z,0
2016-05-30T02:09:25.734Z,0
2016-05-30T02:10:25.738Z,0
2016-05-30T02:11:25.427Z,0
2016-05-30T02:12:25.680Z,0
2016-05-30T02:13:25.683Z,0
2016-05-30T02:14:25.670Z,0
2016-05-30T02:15:25.657Z,0
2016-05-30T02:16:25.629Z,0
2016-05-30T02:17:25.600Z,0
2016-05-30T02:18:25.431Z,0
2016-05-30T02:19:25.590Z,0
2016-05-30T02:20:25.577Z,0
2016-05-30T02:21:25.720Z,0
2016-05-30T02:22:25.926Z,0
2016-05-30T02:23:25.350Z,0
2016-05-30T02:24:25.353Z,0
2016-05-30T02:25:25.325Z,0
2016-05-30T02:26:25.296Z,0
2016-05-30T02:27:25.298Z,0
2016-05-30T02:28:25.426Z,0
2016-05-30T02:29:25.273Z,0
2016-05-30T02:30:25.400Z,0
2016-05-30T02:31:25.200Z,0
2016-05-30T02:32:25.186Z,0
2016-05-30T02:33:25.347Z,0
2016-05-30T02:34:25.161Z,0
2016-05-30T02:35:25.008Z,0
2016-05-30T02:36:25.619Z,0
2016-05-30T02:37:25.419Z,0
2016-05-30T02:38:25.094Z,0
2016-05-30T02:39:25.093Z,0
2016-05-30T02:40:25.092Z,0
2016-05-30T02:41:25.246Z,0
2016-05-30T02:42:25.276Z,0
2016-05-30T02:43:25.306Z,0
2016-05-30T02:44:25.280Z,0
2016-05-30T02:45:25.278Z,0
2016-05-30T02:46:25.274Z,0
2016-05-30T02:47:25.098Z,0
2016-05-30T02:48:25.079Z,0
2016-05-30T02:49:25.277Z,0
2016-05-30T02:50:25.094Z,0
2016-05-30T02:51:25.867Z,0
2016-05-30T02:52:25.435Z,0
2016-05-30T02:53:25.176Z,0
2016-05-30T02:54:25.024Z,0
2016-05-30T02:55:25.153Z,0
2016-05-30T02:56:24.845Z,0
2016-05-30T02:57:24.974Z,0
2016-05-30T02:58:24.775Z,0
2016-05-30T02:59:25.106Z,0
2016-05-30T03:00:25.063Z,0
2016-05-30T03:01:24.911Z,0
2016-05-30T03:02:25.038Z,0
2016-05-30T03:03:25.011Z,0
2016-05-30T03:04:24.889Z,0
2016-05-30T03:05:24.985Z,0
2016-05-30T03:06:24.832Z,0
2016-05-30T03:07:25.147Z,0
2016-05-30T03:08:24.789Z,0
2016-05-30T03:09:24.918Z,0
2016-05-30T03:10:24.921Z,0
2016-05-30T03:11:24.564Z,0
2016-05-30T03:12:24.864Z,0
2016-05-30T03:13:24.553Z,0
2016-05-30T03:14:24.697Z,0
2016-05-30T03:15:24.794Z,0
2016-05-30T03:16:24.812Z,0
2016-05-30T03:17:24.799Z,0
2016-05-30T03:18:24.645Z,0
2016-05-30T03:19:24.741Z,0
2016-05-30T03:20:24.713Z,0
2016-05-30T03:21:24.919Z,0
2016-05-30T03:22:24.562Z,0
2016-05-30T03:23:24.690Z,0
2016-05-30T03:24:24.505Z,0
2016-05-30T03:25:24.508Z,0
2016-05-30T03:26:24.635Z,0
2016-05-30T03:27:24.621Z,0
2016-05-30T03:28:24.610Z,0
2016-05-30T03:29:24.456Z,0
2016-05-30T03:30:24.599Z,0
2016-05-30T03:31:24.539Z,0
2016-05-30T03:32:24.542Z,0
2016-05-30T03:33:24.498Z,0
2016-05-30T03:34:24.484Z,0
2016-05-30T03:35:24.315Z,0
2016-05-30T03:36:24.787Z,0
2016-05-30T03:37:24.149Z,0
2016-05-30T03:38:24.418Z,0
2016-05-30T03:39:24.249Z,0
2016-05-30T03:40:24.375Z,0
2016-05-30T03:41:24.192Z,0
2016-05-30T03:42:24.195Z,0
2016-05-30T03:43:24.322Z,0
2016-05-30T03:44:24.168Z,0
2016-05-30T03:45:24.171Z,0
2016-05-30T03:46:24.127Z,0
2016-05-30T03:47:24.098Z,0
2016-05-30T03:48:24.100Z,0
2016-05-30T03:49:24.072Z,0
2016-05-30T03:50:24.231Z,0
2016-05-30T03:51:24.422Z,0
2016-05-30T03:52:25.299Z,0
2016-05-30T03:53:24.161Z,0
2016-05-30T03:54:24.148Z,0
2016-05-30T03:55:23.979Z,0
2016-05-30T03:56:24.122Z,0
2016-05-30T03:57:23.938Z,0
2016-05-30T03:58:24.080Z,0
2016-05-30T03:59:24.083Z,0
2016-05-30T04:00:24.040Z,0
2016-05-30T04:01:24.026Z,0
2016-05-30T04:02:23.841Z,0
2016-05-30T04:03:23.984Z,0
2016-05-30T04:04:23.972Z,0
2016-05-30T04:05:23.943Z,0
2016-05-30T04:06:23.790Z,0
2016-05-30T04:07:24.276Z,0
2016-05-30T04:08:23.889Z,0
2016-05-30T04:09:23.735Z,0
2016-05-30T04:10:23.863Z,0
2016-05-30T04:11:23.695Z,0
2016-05-30T04:12:23.822Z,0
2016-05-30T04:13:23.808Z,0
2016-05-30T04:14:23.796Z,0
2016-05-30T04:15:23.783Z,0
2016-05-30T04:16:23.786Z,0
2016-05-30T04:17:23.757Z,0
2016-05-30T04:18:23.572Z,0
2016-05-30T04:19:23.731Z,0
2016-05-30T04:20:23.703Z,0
2016-05-30T04:21:24.455Z,0
2016-05-30T04:22:24.739Z,0
2016-05-30T04:23:23.633Z,0
2016-05-30T04:24:23.619Z,0
2016-05-30T04:25:23.466Z,0
2016-05-30T04:26:23.452Z,0
2016-05-30T04:27:23.252Z,0
2016-05-30T04:28:23.552Z,0
2016-05-30T04:29:23.382Z,0
2016-05-30T04:30:23.526Z,0
2016-05-30T04:31:23.513Z,0
2016-05-30T04:32:23.485Z,0
2016-05-30T04:33:23.315Z,0
2016-05-30T04:34:23.459Z,0
2016-05-30T04:35:23.445Z,0
2016-05-30T04:36:23.417Z,0
2016-05-30T04:37:23.515Z,0
2016-05-30T04:38:23.220Z,0
2016-05-30T04:39:23.362Z,0
2016-05-30T04:40:23.350Z,0
2016-05-30T04:41:23.321Z,0
2016-05-30T04:42:23.152Z,0
2016-05-30T04:43:23.296Z,0
2016-05-30T04:44:23.283Z,0
2016-05-30T04:45:23.253Z,0
2016-05-30T04:46:23.070Z,0
2016-05-30T04:47:22.900Z,0
2016-05-30T04:48:23.059Z,0
2016-05-30T04:49:23.203Z,0
2016-05-30T04:50:23.017Z,0
2016-05-30T04:51:23.161Z,0
2016-05-30T04:52:22.992Z,0
2016-05-30T04:53:23.135Z,0
2016-05-30T04:54:23.122Z,0
2016-05-30T04:55:23.078Z,0
2016-05-30T04:56:23.096Z,0
2016-05-30T04:57:23.052Z,0
2016-05-30T04:58:22.883Z,0
2016-05-30T04:59:23.010Z,0
2016-05-30T05:00:22.982Z,0
2016-05-30T05:01:22.829Z,0
2016-05-30T05:02:22.956Z,0
2016-05-30T05:03:22.943Z,0
2016-05-30T05:04:22.946Z,0
2016-05-30T05:05:22.604Z,0
2016-05-30T05:06:22.732Z,0
2016-05-30T05:07:24.157Z,0
2016-05-30T05:08:22.862Z,0
2016-05-30T05:09:22.834Z,0
2016-05-30T05:10:22.665Z,0
2016-05-30T05:11:22.808Z,0
2016-05-30T05:12:22.795Z,0
2016-05-30T05:13:22.767Z,0
2016-05-30T05:14:22.613Z,0
2016-05-30T05:15:22.772Z,0
2016-05-30T05:16:22.556Z,0
2016-05-30T05:17:22.715Z,0
2016-05-30T05:18:22.545Z,0
2016-05-30T05:19:22.658Z,5
2016-05-30T05:20:22.645Z,5
2016-05-30T05:21:22.570Z,5
2016-05-30T05:22:23.870Z,5
2016-05-30T05:23:22.434Z,5
2016-05-30T05:24:22.594Z,5
2016-05-30T05:25:22.580Z,5
2016-05-30T05:26:22.396Z,5
2016-05-30T05:27:22.524Z,5
2016-05-30T05:28:22.527Z,5
2016-05-30T05:29:22.513Z,10
2016-05-30T05:30:22.327Z,10
2016-05-30T05:31:22.316Z,10
2016-05-30T05:32:22.443Z,10
2016-05-30T05:33:22.118Z,10
2016-05-30T05:34:22.401Z,10
2016-05-30T05:35:22.404Z,10
2016-05-30T05:36:22.376Z,10
2016-05-30T05:37:22.268Z,10
2016-05-30T05:38:22.334Z,15
2016-05-30T05:39:22.337Z,15
2016-05-30T05:40:22.308Z,15
2016-05-30T05:41:22.296Z,15
2016-05-30T05:42:22.267Z,15
2016-05-30T05:43:22.254Z,15
2016-05-30T05:44:22.240Z,15
2016-05-30T05:45:22.228Z,15
2016-05-30T05:46:22.089Z,20
2016-05-30T05:47:22.187Z,20
2016-05-30T05:48:22.017Z,20
2016-05-30T05:49:22.161Z,20
2016-05-30T05:50:22.132Z,20
2016-05-30T05:51:22.119Z,20
2016-05-30T05:52:21.824Z,20
2016-05-30T05:53:22.093Z,20
2016-05-30T05:54:21.972Z,25
2016-05-30T05:55:21.739Z,25
2016-05-30T05:56:22.023Z,25
2016-05-30T05:57:22.041Z,25
2016-05-30T05:58:21.982Z,25
2016-05-30T05:59:21.985Z,25
2016-05-30T06:00:21.956Z,25
2016-05-30T06:01:21.958Z,25
2016-05-30T06:02:21.930Z,25
2016-05-30T06:03:21.917Z,30
2016-05-30T06:04:21.888Z,30
2016-05-30T06:05:21.704Z,30
2016-05-30T06:06:21.988Z,30
2016-05-30T06:07:22.287Z,30
2016-05-30T06:08:21.837Z,30
2016-05-30T06:09:21.793Z,30
2016-05-30T06:10:21.795Z,30
2016-05-30T06:11:21.767Z,30
2016-05-30T06:12:21.754Z,30
2016-05-30T06:13:21.443Z,30
2016-05-30T06:14:21.743Z,35
2016-05-30T06:15:21.699Z,35
2016-05-30T06:16:21.530Z,35
2016-05-30T06:17:21.517Z,35
2016-05-30T06:18:21.645Z,35
2016-05-30T06:19:21.631Z,35
2016-05-30T06:20:21.150Z,35
2016-05-30T06:21:21.590Z,35
2016-05-30T06:22:21.905Z,35
2016-05-30T06:23:21.564Z,35
2016-05-30T06:24:21.536Z,40
2016-05-30T06:25:21.382Z,40
2016-05-30T06:26:21.494Z,40
2016-05-30T06:27:21.325Z,40
2016-05-30T06:28:22.046Z,40
2016-05-30T06:29:21.455Z,40
2016-05-30T06:30:21.443Z,40
2016-05-30T06:31:21.413Z,40
2016-05-30T06:32:21.432Z,40
2016-05-30T06:33:22.872Z,40
2016-05-30T06:34:21.219Z,40
2016-05-30T06:35:23.785Z,45
2016-05-30T06:36:21.349Z,45
2016-05-30T06:37:21.446Z,50
2016-05-30T06:38:21.292Z,70
2016-05-30T06:39:21.279Z,90
2016-05-30T06:40:22.220Z,105
2016-05-30T06:41:21.222Z,105
2016-05-30T06:42:21.241Z,110
2016-05-30T06:43:20.931Z,110
2016-05-30T06:44:21.043Z,105
2016-05-30T06:45:21.170Z,105
2016-05-30T06:46:21.017Z,90
2016-05-30T06:47:21.145Z,70
2016-05-30T06:48:20.975Z,55
2016-05-30T06:49:21.104Z,50
2016-05-30T06:50:20.934Z,50
2016-05-30T06:51:20.967Z,50
2016-05-30T06:52:21.721Z,50
2016-05-30T06:53:21.051Z,50
2016-05-30T06:54:20.913Z,50
2016-05-30T06:55:21.057Z,50
2016-05-30T06:56:21.013Z,50
2016-05-30T06:57:20.984Z,50
2016-05-30T06:58:20.972Z,55
2016-05-30T06:59:20.802Z,55
2016-05-30T07:00:23.524Z,60
2016-05-30T07:01:20.916Z,65
2016-05-30T07:02:20.732Z,70
2016-05-30T07:03:20.875Z,85
2016-05-30T07:04:20.847Z,110
2016-05-30T07:05:20.694Z,105
2016-05-30T07:06:20.524Z,100
2016-05-30T07:07:21.074Z,90
2016-05-30T07:08:20.498Z,85
2016-05-30T07:09:20.626Z,95
2016-05-30T07:10:20.737Z,120
2016-05-30T07:11:20.725Z,120
2016-05-30T07:12:20.712Z,95
2016-05-30T07:13:21.058Z,80
2016-05-30T07:14:20.530Z,80
2016-05-30T07:15:20.673Z,85
2016-05-30T07:16:20.660Z,95
2016-05-30T07:17:20.632Z,100
2016-05-30T07:18:20.635Z,95
2016-05-30T07:19:20.590Z,85
2016-05-30T07:20:20.593Z,85
2016-05-30T07:21:20.564Z,70
2016-05-30T07:22:21.692Z,70
2016-05-30T07:23:20.242Z,75
2016-05-30T07:24:20.369Z,85
2016-05-30T07:25:20.387Z,90
2016-05-30T07:26:20.469Z,85
2016-05-30T07:27:20.472Z,90
2016-05-30T07:28:20.520Z,90
2016-05-30T07:29:20.445Z,80
2016-05-30T07:30:20.276Z,85
2016-05-30T07:31:20.263Z,95
2016-05-30T07:32:20.406Z,105
2016-05-30T07:33:21.002Z,95
2016-05-30T07:34:20.349Z,100
2016-05-30T07:35:20.336Z,100
2016-05-30T07:36:20.324Z,110
2016-05-30T07:37:20.107Z,115
2016-05-30T07:38:20.329Z,130
2016-05-30T07:39:20.253Z,160
2016-05-30T07:40:22.444Z,180
2016-05-30T07:41:20.243Z,185
2016-05-30T07:42:20.230Z,175
2016-05-30T07:43:20.045Z,175
2016-05-30T07:44:20.189Z,175
2016-05-30T07:45:20.191Z,165
2016-05-30T07:46:20.162Z,160
2016-05-30T07:47:20.150Z,160
2016-05-30T07:48:21.043Z,165
2016-05-30T07:49:19.952Z,170
2016-05-30T07:50:21.611Z,165
2016-05-30T07:51:20.067Z,160
2016-05-30T07:52:19.756Z,160
2016-05-30T07:53:20.072Z,160
2016-05-30T07:54:20.028Z,180
2016-05-30T07:55:21.031Z,165
2016-05-30T07:56:20.003Z,180
2016-05-30T07:57:19.989Z,160
2016-05-30T07:58:19.976Z,160
2016-05-30T07:59:19.775Z,135
2016-05-30T08:00:19.919Z,125
2016-05-30T08:01:19.750Z,130
2016-05-30T08:02:19.737Z,135
2016-05-30T08:03:20.068Z,140
2016-05-30T08:04:19.867Z,150
2016-05-30T08:05:19.714Z,150
2016-05-30T08:06:19.826Z,155
2016-05-30T08:07:20.360Z,160
2016-05-30T08:08:19.816Z,160
2016-05-30T08:09:19.491Z,155
2016-05-30T08:10:19.758Z,160
2016-05-30T08:11:19.746Z,170
2016-05-30T08:12:19.732Z,195
2016-05-30T08:13:19.438Z,195
2016-05-30T08:14:19.551Z,195
2016-05-30T08:15:19.694Z,195
2016-05-30T08:16:19.682Z,190
2016-05-30T08:17:19.668Z,200
2016-05-30T08:18:19.655Z,205
2016-05-30T08:19:19.486Z,195
2016-05-30T08:20:19.614Z,185
2016-05-30T08:21:19.288Z,190
2016-05-30T08:22:20.745Z,190
2016-05-30T08:23:19.248Z,180
2016-05-30T08:24:19.561Z,155
2016-05-30T08:25:19.377Z,150
2016-05-30T08:26:19.676Z,155
2016-05-30T08:27:19.508Z,175
2016-05-30T08:28:19.479Z,195
2016-05-30T08:29:19.466Z,215
2016-05-30T08:30:19.453Z,205
2016-05-30T08:31:19.455Z,195
2016-05-30T08:32:19.427Z,195
2016-05-30T08:33:19.242Z,210
2016-05-30T08:34:19.245Z,210
2016-05-30T08:35:19.075Z,205
2016-05-30T08:36:19.235Z,210
2016-05-30T08:37:19.316Z,215
2016-05-30T08:38:19.177Z,200
2016-05-30T08:39:19.321Z,205
2016-05-30T08:40:19.308Z,210
2016-05-30T08:41:18.967Z,225
2016-05-30T08:42:19.283Z,230
2016-05-30T08:43:19.268Z,225
2016-05-30T08:44:19.241Z,220
2016-05-30T08:45:19.227Z,230
2016-05-30T08:46:19.230Z,225
2016-05-30T08:47:18.873Z,240
2016-05-30T08:48:19.204Z,255
2016-05-30T08:49:19.176Z,240
2016-05-30T08:50:19.148Z,215
2016-05-30T08:51:18.994Z,230
2016-05-30T08:52:20.293Z,245
2016-05-30T08:53:19.123Z,240
2016-05-30T08:54:19.080Z,210
2016-05-30T08:55:19.098Z,210
2016-05-30T08:56:18.914Z,195
2016-05-30T08:57:19.042Z,175
2016-05-30T08:58:19.029Z,125
2016-05-30T08:59:18.719Z,115
2016-05-30T09:00:19.017Z,140
2016-05-30T09:01:19.005Z,140
2016-05-30T09:02:18.977Z,145
2016-05-30T09:03:19.214Z,165
2016-05-30T09:04:18.951Z,175
2016-05-30T09:05:18.781Z,170
2016-05-30T09:06:18.675Z,160
2016-05-30T09:07:19.365Z,155
2016-05-30T09:08:18.915Z,160
2016-05-30T09:09:18.871Z,155
2016-05-30T09:10:18.716Z,130
2016-05-30T09:11:18.688Z,115
2016-05-30T09:12:18.863Z,105
2016-05-30T09:13:18.819Z,105
2016-05-30T09:14:18.649Z,105
2016-05-30T09:15:18.652Z,110
2016-05-30T09:16:18.764Z,125
2016-05-30T09:17:18.579Z,140
2016-05-30T09:18:18.738Z,150
2016-05-30T09:19:18.710Z,150
2016-05-30T09:20:18.713Z,135
2016-05-30T09:21:18.762Z,130
2016-05-30T09:22:19.656Z,125
2016-05-30T09:23:18.658Z,120
2016-05-30T09:24:18.629Z,115
2016-05-30T09:25:18.664Z,115
2016-05-30T09:26:18.635Z,115
2016-05-30T09:27:18.653Z,125
2016-05-30T09:28:18.577Z,120
2016-05-30T09:29:18.565Z,120
2016-05-30T09:30:18.552Z,120
2016-05-30T09:31:18.539Z,125
2016-05-30T09:32:18.354Z,130
2016-05-30T09:33:18.498Z,135
2016-05-30T09:34:18.500Z,140
2016-05-30T09:35:18.316Z,145
2016-05-30T09:36:18.333Z,135
2016-05-30T09:37:19.025Z,155
2016-05-30T09:38:18.480Z,190
2016-05-30T09:39:18.419Z,195
2016-05-30T09:40:18.407Z,205
2016-05-30T09:41:18.410Z,205
2016-05-30T09:42:18.365Z,185
2016-05-30T09:43:18.353Z,190
2016-05-30T09:44:18.340Z,160
2016-05-30T09:45:18.357Z,210
2016-05-30T09:46:18.158Z,245
2016-05-30T09:47:18.144Z,245
2016-05-30T09:48:18.428Z,250
2016-05-30T09:49:17.963Z,245
2016-05-30T09:50:18.246Z,230
2016-05-30T09:51:18.077Z,190
2016-05-30T09:52:18.064Z,180
2016-05-30T09:53:18.223Z,185
2016-05-30T09:54:18.022Z,195
2016-05-30T09:55:18.165Z,195
2016-05-30T09:56:18.168Z,195
2016-05-30T09:57:18.187Z,200
2016-05-30T09:58:17.970Z,210
2016-05-30T09:59:17.973Z,210
2016-05-30T10:00:18.101Z,225
2016-05-30T10:01:18.089Z,220
2016-05-30T10:02:17.919Z,250
2016-05-30T10:03:18.047Z,260
2016-05-30T10:04:18.050Z,295
2016-05-30T10:05:18.022Z,335
2016-05-30T10:06:18.274Z,300
2016-05-30T10:07:18.011Z,275
2016-05-30T10:08:17.998Z,270
2016-05-30T10:09:17.814Z,240
2016-05-30T10:10:17.956Z,275
2016-05-30T10:11:17.944Z,260
2016-05-30T10:12:17.759Z,260
2016-05-30T10:13:17.918Z,260
2016-05-30T10:14:17.889Z,265
2016-05-30T10:15:17.877Z,185
2016-05-30T10:16:17.863Z,210
2016-05-30T10:17:17.710Z,225
2016-05-30T10:18:17.821Z,165
2016-05-30T10:19:17.527Z,140
2016-05-30T10:20:17.812Z,135
2016-05-30T10:21:17.689Z,195
2016-05-30T10:22:17.645Z,225
2016-05-30T10:23:17.757Z,200
2016-05-30T10:24:17.760Z,160
2016-05-30T10:25:17.809Z,175
2016-05-30T10:26:17.593Z,245
2016-05-30T10:27:17.737Z,225
2016-05-30T10:28:17.723Z,280
2016-05-30T10:29:17.695Z,285
2016-05-30T10:30:17.667Z,225
2016-05-30T10:31:17.497Z,210
2016-05-30T10:32:17.531Z,225
2016-05-30T10:33:17.503Z,320
2016-05-30T10:34:17.333Z,255
2016-05-30T10:35:17.617Z,310
2016-05-30T10:36:18.058Z,320
2016-05-30T10:37:17.670Z,260
2016-05-30T10:38:17.563Z,275
2016-05-30T10:39:17.378Z,335
2016-05-30T10:40:17.380Z,290
2016-05-30T10:41:17.384Z,260
2016-05-30T10:42:17.527Z,235
2016-05-30T10:43:17.545Z,205
2016-05-30T10:44:17.595Z,240
2016-05-30T10:45:17.347Z,200
2016-05-30T10:46:17.302Z,195
2016-05-30T10:47:17.291Z,185
2016-05-30T10:48:17.308Z,170
2016-05-30T10:49:17.279Z,165
2016-05-30T10:50:17.407Z,185
2016-05-30T10:51:17.708Z,210
2016-05-30T10:52:18.288Z,210
2016-05-30T10:53:17.447Z,215
2016-05-30T10:54:17.357Z,215
2016-05-30T10:55:17.171Z,225
2016-05-30T10:56:17.330Z,305
2016-05-30T10:57:17.412Z,295
2016-05-30T10:58:17.164Z,315
2016-05-30T10:59:17.151Z,295
2016-05-30T11:00:17.294Z,300
2016-05-30T11:01:16.968Z,290
2016-05-30T11:02:17.268Z,295
2016-05-30T11:03:17.083Z,305
2016-05-30T11:04:17.086Z,300
2016-05-30T11:05:17.073Z,280
2016-05-30T11:06:17.200Z,250
2016-05-30T11:07:17.375Z,235
2016-05-30T11:08:17.159Z,230
2016-05-30T11:09:17.146Z,250
2016-05-30T11:10:17.133Z,275
2016-05-30T11:11:17.120Z,285
2016-05-30T11:12:16.952Z,305
2016-05-30T11:13:16.938Z,310
2016-05-30T11:14:17.050Z,265
2016-05-30T11:15:31.100Z,265
2016-05-30T11:16:17.071Z,365
2016-05-30T11:17:17.027Z,315
2016-05-30T11:18:17.014Z,295
2016-05-30T11:19:16.861Z,270
2016-05-30T11:20:17.019Z,255
2016-05-30T11:21:16.991Z,265
2016-05-30T11:22:17.479Z,285
2016-05-30T11:23:16.966Z,310
2016-05-30T11:24:16.952Z,345
2016-05-30T11:25:16.924Z,445
2016-05-30T11:26:16.926Z,1460
2016-05-30T11:27:16.757Z,2205
2016-05-30T11:28:16.744Z,2260
2016-05-30T11:29:16.873Z,2195
2016-05-30T11:30:16.562Z,595
2016-05-30T11:31:16.862Z,695
2016-05-30T11:32:16.708Z,2275
2016-05-30T11:33:16.836Z,1525
2016-05-30T11:34:16.839Z,320
2016-05-30T11:35:16.826Z,340
2016-05-30T11:36:16.812Z,275
2016-05-30T11:37:17.003Z,225
2016-05-30T11:38:16.630Z,235
2016-05-30T11:39:16.790Z,225
2016-05-30T11:40:16.792Z,405
2016-05-30T11:41:16.607Z,1525
2016-05-30T11:42:16.766Z,300
2016-05-30T11:43:16.597Z,315
2016-05-30T11:44:16.741Z,300
2016-05-30T11:45:16.742Z,345
2016-05-30T11:46:16.766Z,1630
2016-05-30T11:47:16.805Z,2280
2016-05-30T11:48:16.796Z,2295
2016-05-30T11:49:16.647Z,2330
2016-05-30T11:50:16.645Z,2430
2016-05-30T11:51:16.796Z,2465
2016-05-30T11:52:16.634Z,2305
2016-05-30T11:53:16.800Z,2270
2016-05-30T11:54:16.654Z,2240
2016-05-30T11:55:16.644Z,2230
2016-05-30T11:56:16.790Z,360
2016-05-30T11:57:16.780Z,2375
2016-05-30T11:58:16.644Z,2365
2016-05-30T11:59:16.775Z,1070
2016-05-30T12:00:16.639Z,745
2016-05-30T12:01:16.768Z,2240
2016-05-30T12:02:16.772Z,2265
2016-05-30T12:03:16.604Z,2260
2016-05-30T12:04:16.763Z,2235
2016-05-30T12:05:16.752Z,2215
2016-05-30T12:06:16.755Z,2325
2016-05-30T12:07:17.758Z,460
2016-05-30T12:08:16.761Z,375
2016-05-30T12:09:16.435Z,515
2016-05-30T12:10:16.751Z,635
2016-05-30T12:11:16.426Z,700
2016-05-30T12:12:16.725Z,650
2016-05-30T12:13:16.712Z,435
2016-05-30T12:14:16.573Z,585
2016-05-30T12:15:16.717Z,575
2016-05-30T12:16:16.736Z,590
2016-05-30T12:17:16.551Z,365
2016-05-30T12:18:16.710Z,350
2016-05-30T12:19:16.712Z,605
2016-05-30T12:20:16.403Z,410
2016-05-30T12:21:16.687Z,355
2016-05-30T12:22:17.283Z,410
2016-05-30T12:23:16.692Z,620
2016-05-30T12:24:16.695Z,625
2016-05-30T12:25:16.666Z,550
2016-05-30T12:26:16.544Z,615
2016-05-30T12:27:16.531Z,390
2016-05-30T12:28:16.533Z,395
2016-05-30T12:29:16.974Z,380
2016-05-30T12:30:16.696Z,350
2016-05-30T12:31:16.511Z,360
2016-05-30T12:32:16.685Z,395
2016-05-30T12:33:17.110Z,635
2016-05-30T12:34:16.659Z,595
2016-05-30T12:35:16.646Z,565
2016-05-30T12:36:16.618Z,545
2016-05-30T12:37:16.996Z,570
2016-05-30T12:38:16.623Z,395
2016-05-30T12:39:16.626Z,615
2016-05-30T12:40:16.629Z,435
2016-05-30T12:41:16.600Z,410
2016-05-30T12:42:16.665Z,460
2016-05-30T12:43:16.637Z,690
2016-05-30T12:44:16.655Z,430
2016-05-30T12:45:16.595Z,405
2016-05-30T12:46:16.426Z,350
2016-05-30T12:47:16.553Z,320
2016-05-30T12:48:16.573Z,365
2016-05-30T12:49:16.590Z,730
2016-05-30T12:50:16.578Z,705
2016-05-30T12:51:16.548Z,710
2016-05-30T12:52:17.192Z,720
2016-05-30T12:53:16.554Z,755
2016-05-30T12:54:16.541Z,825
2016-05-30T12:55:16.528Z,500
2016-05-30T12:56:24.047Z,685
2016-05-30T12:57:16.534Z,595
2016-05-30T12:58:16.521Z,1460
2016-05-30T12:59:16.555Z,2040
2016-05-30T13:00:16.526Z,2185
2016-05-30T13:01:16.513Z,1950
2016-05-30T13:02:16.532Z,2055
2016-05-30T13:03:16.502Z,2070
2016-05-30T13:04:16.490Z,2100
2016-05-30T13:05:16.196Z,2095
2016-05-30T13:06:16.496Z,1945
2016-05-30T13:07:16.405Z,1850
2016-05-30T13:08:16.485Z,1930
2016-05-30T13:09:16.535Z,1785
2016-05-30T13:10:16.319Z,1730
2016-05-30T13:11:16.477Z,590
2016-05-30T13:12:16.480Z,415
2016-05-30T13:13:16.545Z,940
2016-05-30T13:14:16.470Z,1880
2016-05-30T13:15:16.457Z,2090
2016-05-30T13:16:16.475Z,2130
2016-05-30T13:17:16.306Z,2145
2016-05-30T13:18:16.450Z,2235
2016-05-30T13:19:16.436Z,2225
2016-05-30T13:20:16.283Z,2195
2016-05-30T13:21:16.473Z,2195
2016-05-30T13:22:16.851Z,2220
2016-05-30T13:23:16.478Z,2225
2016-05-30T13:24:16.497Z,2165
2016-05-30T13:25:16.281Z,2110
2016-05-30T13:26:16.439Z,2215
2016-05-30T13:27:16.427Z,2235
2016-05-30T13:28:16.414Z,2250
2016-05-30T13:29:16.400Z,2465
2016-05-30T13:30:16.403Z,2440
2016-05-30T13:31:16.297Z,2375
2016-05-30T13:32:16.096Z,2395
2016-05-30T13:33:16.412Z,2360
2016-05-30T13:34:16.399Z,2245
2016-05-30T13:35:16.416Z,2180
2016-05-30T13:36:16.405Z,2455
2016-05-30T13:37:17.766Z,2490
2016-05-30T13:38:16.550Z,2615
2016-05-30T13:39:16.444Z,2605
2016-05-30T13:40:16.399Z,2520
2016-05-30T13:41:16.402Z,2560
2016-05-30T13:42:16.702Z,625
2016-05-30T13:43:16.235Z,1455
2016-05-30T13:44:16.395Z,2415
2016-05-30T13:45:16.507Z,2230
2016-05-30T13:46:16.243Z,2290
2016-05-30T13:47:16.668Z,2255
2016-05-30T13:48:16.420Z,2225
2016-05-30T13:49:16.377Z,2145
2016-05-30T13:50:16.411Z,2120
2016-05-30T13:51:16.382Z,2290
2016-05-30T13:52:16.478Z,2460
2016-05-30T13:53:16.262Z,2340
2016-05-30T13:54:16.390Z,2270
2016-05-30T13:55:16.096Z,2115
2016-05-30T13:56:16.192Z,1905
2016-05-30T13:57:16.492Z,1930
2016-05-30T13:58:16.479Z,1895
2016-05-30T13:59:16.872Z,1610
2016-05-30T14:00:16.250Z,2050
2016-05-30T14:01:16.361Z,1875
2016-05-30T14:02:16.208Z,2110
2016-05-30T14:03:16.336Z,2060
2016-05-30T14:04:16.339Z,2030
2016-05-30T14:05:16.357Z,2085
2016-05-30T14:06:16.344Z,2200
2016-05-30T14:07:17.222Z,2040
2016-05-30T14:08:16.193Z,1860
2016-05-30T14:09:16.352Z,1960